Terminal Aerodrome Forecast
Issued by NWS Twin Cities, MN

Home | Current Version | Previous Version | Text Only | Print | Product List | Glossary Off
Versions: 1 2 3 4 5 6 7 8 9 10 11 12 13 14 15 16 17 18 19 20 21 22 23 24 25 26 27 28

000
FTUS43 KMPX 242050 AAC
TAFMSP
TAF AMD
KMSP 242050Z 2421/2524 08009KT 5SM -RA BR OVC015
     FM250400 05003KT 4SM BR VCSH OVC008
     FM251600 29004KT P6SM OVC012
     FM252000 25009KT P6SM OVC022=

USA.gov is the U.S. government's official web portal to all federal, state and local government web resources and services.